Pembroke Park, Florida
Current Conditions -  °F | °C
As of 2:53 PM on Friday 28 Nov 2014 (Local Time) from KHWO Reporting Station
Scattered Clouds Scattered Clouds  
Wind Chill: 70°   Ceiling: Unl
Heat Index: 70°   Visibility: 10mi
Dew Point: 50°   Wind: 13mph
Humidity: 49%   Direction: 350°N
Pressure: 30.17"   Gusts: NA
Location:  25.9859°N, 80.1469°W
Report Text: KHWO 281953Z 35011KT 10SM SCT043 21/10 A3017 RMK AO2 SLP216 T02110100
Loading
Personal Weather Stations






























Interactive Weather Map New forecast layout! Learn more

10-Day Weather Forecast

Advertisements
Track Severe Weather on mobile